createdAt,value
2023-05-16T00:01:10.137Z,2.90
2023-05-16T00:03:39.840Z,2.83
2023-05-16T00:06:06.907Z,3.05
2023-05-16T00:08:33.528Z,2.83
2023-05-16T00:11:00.279Z,2.90
2023-05-16T00:13:27.084Z,3.78
2023-05-16T00:15:55.351Z,2.90
2023-05-16T00:18:22.802Z,3.13
2023-05-16T00:20:50.663Z,2.58
2023-05-16T00:23:17.327Z,2.67
2023-05-16T00:25:44.496Z,2.72
2023-05-16T00:28:11.254Z,2.72
2023-05-16T00:30:38.094Z,2.72
2023-05-16T00:33:04.715Z,3.00
2023-05-16T00:35:31.540Z,2.90
2023-05-16T00:37:58.272Z,2.80
2023-05-16T00:40:25.081Z,3.05
2023-05-16T00:42:52.016Z,2.90
2023-05-16T00:45:19.038Z,2.70
2023-05-16T00:47:45.877Z,2.88
2023-05-16T00:50:12.785Z,2.58
2023-05-16T00:52:39.713Z,2.95
2023-05-16T00:55:06.980Z,2.63
2023-05-16T00:57:34.047Z,2.95
2023-05-16T01:00:00.816Z,2.63
2023-05-16T01:02:28.980Z,2.95
2023-05-16T01:04:56.724Z,2.90
2023-05-16T01:07:23.842Z,2.63
2023-05-16T01:09:50.645Z,2.55
2023-05-16T01:12:40.730Z,2.83
2023-05-16T01:15:22.241Z,2.60
2023-05-16T01:18:50.580Z,2.40
2023-05-16T01:21:25.206Z,2.67
2023-05-16T01:24:13.367Z,2.65
2023-05-16T01:26:41.291Z,2.58
2023-05-16T01:29:08.643Z,2.60
2023-05-16T01:31:35.372Z,2.75
2023-05-16T01:34:02.062Z,2.65
2023-05-16T01:36:34.304Z,2.80
2023-05-16T01:39:07.222Z,2.67
2023-05-16T01:41:48.052Z,2.80
2023-05-16T01:44:31.560Z,2.70
2023-05-16T01:47:02.464Z,2.40
2023-05-16T01:49:39.095Z,2.80
2023-05-16T01:52:11.306Z,2.75
2023-05-16T01:54:41.755Z,3.22
2023-05-16T01:57:16.033Z,2.67
2023-05-16T01:59:44.455Z,2.85
2023-05-16T02:02:11.255Z,2.80
2023-05-16T02:04:37.885Z,2.85
2023-05-16T02:07:04.758Z,2.50
2023-05-16T02:09:31.584Z,2.80
2023-05-16T02:11:58.144Z,2.60
2023-05-16T02:14:25.831Z,2.60
2023-05-16T02:16:52.682Z,2.58
2023-05-16T02:19:19.383Z,2.60
2023-05-16T02:21:46.030Z,2.50
2023-05-16T02:24:12.647Z,2.45
2023-05-16T02:26:39.244Z,2.60
2023-05-16T02:29:06.151Z,2.35
2023-05-16T02:31:34.617Z,2.80
2023-05-16T02:34:02.213Z,2.70
2023-05-16T02:36:29.070Z,2.28
2023-05-16T02:38:55.764Z,2.60
2023-05-16T02:41:22.526Z,2.67
2023-05-16T02:43:49.630Z,2.10
2023-05-16T02:46:23.434Z,4.28
2023-05-16T02:48:51.637Z,2.50
2023-05-16T02:51:23.076Z,2.95
2023-05-16T02:53:50.186Z,2.25
2023-05-16T02:56:17.482Z,2.78
2023-05-16T02:58:46.575Z,2.47
2023-05-16T03:01:13.226Z,2.80
2023-05-16T03:03:40.063Z,2.28
2023-05-16T03:06:07.011Z,2.35
2023-05-16T03:08:35.044Z,2.63
2023-05-16T03:11:01.748Z,2.30
2023-05-16T03:13:30.049Z,2.45
2023-05-16T03:15:56.755Z,2.78
2023-05-16T03:18:23.364Z,2.47
2023-05-16T03:20:50.596Z,2.15
2023-05-16T03:23:17.174Z,2.30
2023-05-16T03:25:43.818Z,2.45
2023-05-16T03:28:10.730Z,2.65
2023-05-16T03:30:37.591Z,2.38
2023-05-16T03:33:04.451Z,2.17
2023-05-16T03:35:36.352Z,2.40
2023-05-16T03:38:03.572Z,2.53
2023-05-16T03:40:30.333Z,2.40
2023-05-16T03:42:57.120Z,2.20
2023-05-16T03:45:24.000Z,2.00
2023-05-16T03:47:50.868Z,2.42
2023-05-16T03:50:17.872Z,2.40
2023-05-16T03:52:44.977Z,2.13
2023-05-16T03:55:14.415Z,2.38
2023-05-16T03:57:43.243Z,2.30
2023-05-16T04:00:12.343Z,2.45
2023-05-16T04:02:43.728Z,2.00
2023-05-16T04:05:11.814Z,2.20
2023-05-16T04:07:38.578Z,2.33
2023-05-16T04:10:06.332Z,2.22
2023-05-16T04:12:33.209Z,2.85
2023-05-16T04:14:59.802Z,2.42
2023-05-16T04:17:26.522Z,4.05
2023-05-16T04:19:53.266Z,2.50
2023-05-16T04:22:22.851Z,2.58
2023-05-16T04:24:49.912Z,2.38
2023-05-16T04:27:16.609Z,8.07
2023-05-16T04:29:43.608Z,17.45
2023-05-16T04:32:10.991Z,18.83
2023-05-16T04:34:39.671Z,18.85
2023-05-16T04:37:07.466Z,21.55
2023-05-16T04:39:35.350Z,20.27
2023-05-16T04:42:02.121Z,18.15
2023-05-16T04:44:28.898Z,16.63
2023-05-16T04:46:55.711Z,16.50
2023-05-16T04:49:22.858Z,16.48
2023-05-16T04:51:49.786Z,13.23
2023-05-16T04:54:16.456Z,16.92
2023-05-16T04:56:43.140Z,16.35
2023-05-16T04:59:09.743Z,14.73
2023-05-16T05:01:36.895Z,16.73
2023-05-16T05:04:03.608Z,12.00
2023-05-16T05:06:30.176Z,15.52
2023-05-16T05:08:56.760Z,12.90
2023-05-16T05:11:23.448Z,11.95
2023-05-16T05:13:52.528Z,13.10
2023-05-16T05:16:19.894Z,12.13
2023-05-16T05:18:46.934Z,15.93
2023-05-16T05:21:13.946Z,15.98
2023-05-16T05:23:41.154Z,9.73
2023-05-16T05:26:07.843Z,10.57
2023-05-16T05:28:34.511Z,12.02
2023-05-16T05:31:01.116Z,8.77
2023-05-16T05:33:29.317Z,9.88
2023-05-16T05:35:56.061Z,8.45
2023-05-16T05:38:23.069Z,6.90
2023-05-16T05:40:49.776Z,8.18
2023-05-16T05:43:16.455Z,7.80
2023-05-16T05:45:44.008Z,9.07
2023-05-16T05:48:11.290Z,7.38
2023-05-16T05:50:37.993Z,8.38
2023-05-16T05:53:04.856Z,8.70
2023-05-16T05:55:31.498Z,7.78
2023-05-16T05:57:58.088Z,6.32
2023-05-16T06:00:25.016Z,7.90
2023-05-16T06:02:51.927Z,7.38
2023-05-16T06:05:18.787Z,6.35
2023-05-16T06:07:45.466Z,7.53
2023-05-16T06:10:12.156Z,6.97
2023-05-16T06:12:39.116Z,5.95
2023-05-16T06:15:06.236Z,6.72
2023-05-16T06:17:32.953Z,6.55
2023-05-16T06:19:59.557Z,7.28
2023-05-16T06:22:26.195Z,5.28
2023-05-16T06:24:52.833Z,7.63
2023-05-16T06:27:19.510Z,7.25
2023-05-16T06:29:46.177Z,5.95
2023-05-16T06:32:13.629Z,5.55
2023-05-16T06:34:40.422Z,6.18
2023-05-16T06:37:07.093Z,7.93
2023-05-16T06:39:33.677Z,5.82
2023-05-16T06:42:00.804Z,5.65
2023-05-16T06:44:27.650Z,5.80
2023-05-16T06:46:54.442Z,5.80
2023-05-16T06:49:21.319Z,5.68
2023-05-16T06:51:47.941Z,5.03
2023-05-16T06:54:14.918Z,5.22
2023-05-16T06:56:41.755Z,5.43
2023-05-16T06:59:08.426Z,5.20
2023-05-16T07:01:35.114Z,5.45
2023-05-16T07:04:01.877Z,5.30
2023-05-16T07:06:28.618Z,6.47
2023-05-16T07:08:55.250Z,6.60
2023-05-16T07:11:21.912Z,5.60
2023-05-16T07:13:48.562Z,5.20
2023-05-16T07:16:15.314Z,5.32
2023-05-16T07:18:42.194Z,8.25
2023-05-16T07:21:09.882Z,5.60
2023-05-16T07:23:36.524Z,5.85
2023-05-16T07:26:03.541Z,5.03
2023-05-16T07:28:30.174Z,4.80
2023-05-16T07:30:58.774Z,5.07
2023-05-16T07:33:25.726Z,5.05
2023-05-16T07:35:58.106Z,5.10
2023-05-16T07:38:31.432Z,4.70
2023-05-16T07:40:58.125Z,4.95
2023-05-16T07:43:24.877Z,5.45
2023-05-16T07:45:52.252Z,5.03
2023-05-16T07:48:19.374Z,4.85
2023-05-16T07:50:46.093Z,5.40
2023-05-16T07:53:12.948Z,5.15
2023-05-16T07:55:39.730Z,4.88
2023-05-16T07:58:06.807Z,4.82
2023-05-16T08:00:33.874Z,5.10
2023-05-16T08:03:00.629Z,4.85
2023-05-16T08:05:27.617Z,5.03
2023-05-16T08:07:54.545Z,4.47
2023-05-16T08:10:22.195Z,6.25
2023-05-16T08:12:49.052Z,4.68
2023-05-16T08:15:15.925Z,4.50
2023-05-16T08:17:42.639Z,5.38
2023-05-16T15:03:23.321Z,3.83
2023-05-16T15:05:51.015Z,5.40
2023-05-16T15:08:18.151Z,4.55
2023-05-16T15:10:44.817Z,5.45
2023-05-16T15:13:11.561Z,12.07
2023-05-16T15:15:38.863Z,6.50
2023-05-16T15:18:05.835Z,3.58
2023-05-16T15:20:33.251Z,3.95
2023-05-16T15:23:00.390Z,6.07
2023-05-16T15:25:28.293Z,4.60
2023-05-16T15:27:55.723Z,7.80
2023-05-16T15:30:22.500Z,8.55
2023-05-16T15:32:49.324Z,4.78
2023-05-16T15:35:16.291Z,8.73
2023-05-16T15:37:43.672Z,5.25
2023-05-16T15:40:11.036Z,3.35
2023-05-16T15:42:38.089Z,5.68
2023-05-16T15:45:05.143Z,7.07
2023-05-16T15:47:32.512Z,8.75
2023-05-16T15:49:59.262Z,4.70
2023-05-16T15:52:26.058Z,5.35
2023-05-16T15:54:52.836Z,4.43
2023-05-16T15:57:19.543Z,3.78
2023-05-16T15:59:46.383Z,5.95
2023-05-16T16:02:13.107Z,6.18
2023-05-16T16:04:40.122Z,6.75
2023-05-16T16:07:06.996Z,6.80
2023-05-16T16:09:33.785Z,6.35
2023-05-16T16:12:00.468Z,6.22
2023-05-16T16:14:27.541Z,4.63
2023-05-16T16:16:54.242Z,8.15
2023-05-16T16:19:22.037Z,4.20
2023-05-16T16:21:48.859Z,4.90
2023-05-16T16:24:15.889Z,7.00
2023-05-16T16:26:43.421Z,3.25
2023-05-16T16:29:10.111Z,6.57
2023-05-16T16:31:36.829Z,6.80
2023-05-16T16:34:03.566Z,4.90
2023-05-16T16:36:31.667Z,4.45
2023-05-16T16:38:58.956Z,3.05
2023-05-16T16:41:25.990Z,4.32
2023-05-16T16:43:53.223Z,3.92
2023-05-16T16:46:20.230Z,2.63
2023-05-16T16:48:47.797Z,2.80
2023-05-16T16:51:14.459Z,7.60
2023-05-16T16:53:41.716Z,4.97
2023-05-16T16:56:08.429Z,4.70
2023-05-16T16:58:35.073Z,5.85
2023-05-16T17:01:01.768Z,4.43
2023-05-16T17:03:28.591Z,6.22
2023-05-16T17:05:59.279Z,3.55
2023-05-16T17:08:26.032Z,2.42
2023-05-16T17:10:52.688Z,3.15
2023-05-16T17:13:19.284Z,2.85
2023-05-16T17:15:47.124Z,4.15
2023-05-16T17:18:14.544Z,3.88
2023-05-16T17:20:41.281Z,12.65
2023-05-16T17:23:07.965Z,26.23
2023-05-16T17:25:34.608Z,16.80
2023-05-16T17:28:01.248Z,16.67
2023-05-16T17:30:27.980Z,12.73
2023-05-16T17:32:54.743Z,8.60
2023-05-16T17:35:21.487Z,8.45
2023-05-16T17:37:49.796Z,8.95
2023-05-16T17:40:17.672Z,6.82
2023-05-16T17:42:45.384Z,10.98
2023-05-16T17:45:16.092Z,8.07
2023-05-16T17:47:43.247Z,11.73
2023-05-16T17:50:10.845Z,8.13
2023-05-16T17:52:39.385Z,9.98
2023-05-16T17:55:08.745Z,10.35
2023-05-16T17:57:35.458Z,14.73
2023-05-16T18:00:05.784Z,17.55
2023-05-16T18:02:34.874Z,10.70
2023-05-16T18:05:02.809Z,10.20
2023-05-16T18:07:29.872Z,11.23
2023-05-16T18:09:56.604Z,7.55
2023-05-16T18:12:23.592Z,10.68
2023-05-16T18:14:50.501Z,11.13
2023-05-16T18:17:17.294Z,9.93
2023-05-16T18:19:44.056Z,7.75
2023-05-16T18:22:12.392Z,10.55
2023-05-16T18:24:39.847Z,9.32
2023-05-16T18:27:06.920Z,11.30
2023-05-16T18:29:34.343Z,15.77
2023-05-16T18:32:01.303Z,9.35
2023-05-16T18:34:27.991Z,10.55
2023-05-16T18:36:54.765Z,6.07
2023-05-16T18:39:21.595Z,11.50
2023-05-16T18:41:48.457Z,11.32
2023-05-16T18:44:18.413Z,7.60
2023-05-16T18:46:46.193Z,10.32
2023-05-16T18:49:14.248Z,10.07
2023-05-16T18:51:41.239Z,5.63
2023-05-16T18:54:08.095Z,7.78
2023-05-16T18:56:35.112Z,7.57
2023-05-16T18:59:01.821Z,8.10
2023-05-16T19:01:28.711Z,7.97
2023-05-16T19:06:22.959Z,12.38
2023-05-16T19:08:50.156Z,4.78
2023-05-16T19:11:17.874Z,7.15
2023-05-16T19:13:45.649Z,3.85
2023-05-16T19:16:14.928Z,9.15
2023-05-16T19:18:41.952Z,7.07
2023-05-16T19:21:10.244Z,6.32
2023-05-16T19:23:37.131Z,6.13
2023-05-16T19:26:04.831Z,5.53
2023-05-16T19:28:32.590Z,4.88
2023-05-16T19:30:59.547Z,6.47
2023-05-16T19:33:26.732Z,6.75
2023-05-16T19:35:53.787Z,5.93
2023-05-16T19:38:22.758Z,4.57
2023-05-16T19:40:49.669Z,5.20
2023-05-16T19:43:16.572Z,19.27
2023-05-16T19:45:43.545Z,8.40
2023-05-16T19:48:10.751Z,9.68
2023-05-16T19:50:37.648Z,4.00
2023-05-16T19:53:04.450Z,10.60
2023-05-16T19:55:31.773Z,6.20
2023-05-16T19:57:58.866Z,7.05
2023-05-16T20:00:25.622Z,5.18
2023-05-16T20:02:52.535Z,4.18
2023-05-16T20:05:22.877Z,8.57
2023-05-16T20:07:50.659Z,5.60
2023-05-16T20:10:18.713Z,6.28
2023-05-16T20:12:46.571Z,6.00
2023-05-16T20:15:13.411Z,9.07
2023-05-16T20:17:41.282Z,5.60
2023-05-16T20:20:09.403Z,9.18
2023-05-16T20:22:38.878Z,7.28
2023-05-16T20:25:07.208Z,5.55
2023-05-16T20:27:34.205Z,3.92
2023-05-16T20:30:01.602Z,4.68
2023-05-16T20:32:28.676Z,7.15
2023-05-16T20:34:55.629Z,6.93
2023-05-16T20:37:26.501Z,5.65
2023-05-16T20:39:56.476Z,4.00
2023-05-16T20:42:23.184Z,20.42
2023-05-16T20:44:49.820Z,11.13
2023-05-16T20:47:17.045Z,9.02
2023-05-16T20:49:44.127Z,7.63
2023-05-16T20:52:11.063Z,7.18
2023-05-16T20:54:37.915Z,4.47
2023-05-16T20:57:05.119Z,7.32
2023-05-16T20:59:32.196Z,7.13
2023-05-16T21:01:59.020Z,8.30
2023-05-16T21:04:25.913Z,3.50
2023-05-16T21:06:52.538Z,3.65
2023-05-16T21:09:19.254Z,3.55
2023-05-16T21:11:45.941Z,4.15
2023-05-16T21:14:12.660Z,2.83
2023-05-16T21:16:39.302Z,4.07
2023-05-16T21:19:06.072Z,3.47
2023-05-16T21:21:32.957Z,3.92
2023-05-16T21:23:59.706Z,3.30
2023-05-16T21:26:26.427Z,3.25
2023-05-16T21:28:55.491Z,2.95
2023-05-16T21:31:23.151Z,3.20
2023-05-16T21:33:52.776Z,2.28
2023-05-16T21:36:20.580Z,4.25
2023-05-16T21:38:47.517Z,3.17
2023-05-16T21:41:14.707Z,2.40
2023-05-16T21:43:41.360Z,4.50
2023-05-16T21:46:08.021Z,5.40
2023-05-16T21:48:35.877Z,3.10
2023-05-16T21:51:03.323Z,2.22
2023-05-16T21:53:30.069Z,3.42
2023-05-16T21:55:56.762Z,4.15
2023-05-16T21:58:25.069Z,2.45
2023-05-16T22:00:51.766Z,5.93
2023-05-16T22:03:21.087Z,3.30
2023-05-16T22:05:48.122Z,2.10
2023-05-16T22:08:14.889Z,3.70
2023-05-16T22:10:41.547Z,3.20
2023-05-16T22:13:08.187Z,4.70
2023-05-16T22:15:34.830Z,3.90
2023-05-16T22:18:01.720Z,3.50
2023-05-16T22:20:29.524Z,1.77
2023-05-16T22:22:56.398Z,3.05
2023-05-16T22:25:23.037Z,2.72
2023-05-16T22:27:49.711Z,1.58
2023-05-16T22:30:16.394Z,2.97
2023-05-16T22:32:43.136Z,2.42
2023-05-16T22:35:09.886Z,1.88
2023-05-16T22:37:36.818Z,3.53
2023-05-16T22:40:03.673Z,1.30
2023-05-16T22:42:31.240Z,2.75
2023-05-16T22:44:57.943Z,1.95
2023-05-16T22:47:24.646Z,2.05
2023-05-16T22:49:51.330Z,1.83
2023-05-16T22:52:17.980Z,1.55
2023-05-16T22:54:44.746Z,1.13
2023-05-16T22:57:11.402Z,2.47
2023-05-16T22:59:38.132Z,1.73
2023-05-16T23:02:04.796Z,0.70
2023-05-16T23:04:31.561Z,0.82
2023-05-16T23:06:58.349Z,1.55
2023-05-16T23:09:24.989Z,3.17
2023-05-16T23:11:51.715Z,1.52
2023-05-16T23:14:18.433Z,1.98
2023-05-16T23:16:45.230Z,1.17
2023-05-16T23:19:11.916Z,2.92
2023-05-16T23:21:39.940Z,2.00
2023-05-16T23:24:06.890Z,2.63
2023-05-16T23:26:33.577Z,1.58
2023-05-16T23:29:00.407Z,1.42
2023-05-16T23:31:27.124Z,1.48
2023-05-16T23:33:53.821Z,1.25
2023-05-16T23:36:20.557Z,1.92
2023-05-16T23:38:47.193Z,2.75
2023-05-16T23:41:14.597Z,1.65
2023-05-16T23:43:41.252Z,1.88
2023-05-16T23:46:07.938Z,1.45
2023-05-16T23:48:36.590Z,0.82
2023-05-16T23:51:07.303Z,1.88
2023-05-16T23:53:34.806Z,1.95
2023-05-16T23:56:01.483Z,1.23
2023-05-16T23:58:28.318Z,1.05
